sensor_id;sensor_type;location;lat;lon;timestamp;pressure;altitude;pressure_sealevel;temperature;humidity
19600;BME280;9947;57.722;12.012;2023-04-02T00:01:23;101768.16;;;-3.38;100.00
19600;BME280;9947;57.722;12.012;2023-04-02T00:04:10;101762.84;;;-3.46;100.00
19600;BME280;9947;57.722;12.012;2023-04-02T00:06:41;101769.03;;;-3.47;100.00
19600;BME280;9947;57.722;12.012;2023-04-02T00:09:34;101776.94;;;-3.44;100.00
19600;BME280;9947;57.722;12.012;2023-04-02T00:12:14;101771.66;;;-3.45;100.00
19600;BME280;9947;57.722;12.012;2023-04-02T00:14:51;101773.44;;;-3.44;100.00
19600;BME280;9947;57.722;12.012;2023-04-02T00:17:21;101777.84;;;-3.35;100.00
19600;BME280;9947;57.722;12.012;2023-04-02T00:19:53;101780.47;;;-3.32;100.00
19600;BME280;9947;57.722;12.012;2023-04-02T00:22:25;101783.13;;;-3.37;100.00
19600;BME280;9947;57.722;12.012;2023-04-02T00:24:53;101782.22;;;-3.39;100.00
19600;BME280;9947;57.722;12.012;2023-04-02T00:27:21;101797.22;;;-3.44;100.00
19600;BME280;9947;57.722;12.012;2023-04-02T00:29:49;101793.69;;;-3.43;100.00
19600;BME280;9947;57.722;12.012;2023-04-02T00:32:20;101799.84;;;-3.41;100.00
19600;BME280;9947;57.722;12.012;2023-04-02T00:34:49;101802.50;;;-3.39;100.00
19600;BME280;9947;57.722;12.012;2023-04-02T00:37:19;101807.81;;;-3.49;100.00
19600;BME280;9947;57.722;12.012;2023-04-02T00:39:52;101808.69;;;-3.51;100.00
19600;BME280;9947;57.722;12.012;2023-04-02T00:42:22;101818.41;;;-3.55;100.00
19600;BME280;9947;57.722;12.012;2023-04-02T00:44:50;101818.41;;;-3.53;100.00
19600;BME280;9947;57.722;12.012;2023-04-02T00:47:32;101821.91;;;-3.51;100.00
19600;BME280;9947;57.722;12.012;2023-04-02T00:50:05;101816.63;;;-3.54;100.00
19600;BME280;9947;57.722;12.012;2023-04-02T00:52:35;101825.44;;;-3.52;100.00
19600;BME280;9947;57.722;12.012;2023-04-02T00:55:07;101828.06;;;-3.46;100.00
19600;BME280;9947;57.722;12.012;2023-04-02T00:57:40;101832.47;;;-3.50;100.00
19600;BME280;9947;57.722;12.012;2023-04-02T01:00:19;101836.03;;;-3.55;100.00
19600;BME280;9947;57.722;12.012;2023-04-02T01:03:28;101840.41;;;-3.50;100.00
19600;BME280;9947;57.722;12.012;2023-04-02T01:06:00;101849.22;;;-3.49;100.00
19600;BME280;9947;57.722;12.012;2023-04-02T01:08:38;101849.22;;;-3.49;100.00
19600;BME280;9947;57.722;12.012;2023-04-02T01:11:18;101851.00;;;-3.51;100.00
19600;BME280;9947;57.722;12.012;2023-04-02T01:13:56;101858.03;;;-3.47;100.00
19600;BME280;9947;57.722;12.012;2023-04-02T01:16:33;101852.75;;;-3.55;100.00
19600;BME280;9947;57.722;12.012;2023-04-02T01:19:20;101863.34;;;-3.56;100.00
19600;BME280;9947;57.722;12.012;2023-04-02T01:21:59;101863.34;;;-3.58;100.00
19600;BME280;9947;57.722;12.012;2023-04-02T01:24:38;101859.81;;;-3.61;100.00
19600;BME280;9947;57.722;12.012;2023-04-02T01:27:15;101860.69;;;-3.65;100.00
19600;BME280;9947;57.722;12.012;2023-04-02T01:29:48;101866.88;;;-3.60;100.00
19600;BME280;9947;57.722;12.012;2023-04-02T01:32:19;101876.53;;;-3.65;100.00
19600;BME280;9947;57.722;12.012;2023-04-02T01:34:49;101876.56;;;-3.64;100.00
19600;BME280;9947;57.722;12.012;2023-04-02T01:37:26;101879.19;;;-3.61;100.00
19600;BME280;9947;57.722;12.012;2023-04-02T01:40:06;101884.50;;;-3.64;100.00
19600;BME280;9947;57.722;12.012;2023-04-02T01:42:38;101886.22;;;-3.69;100.00
19600;BME280;9947;57.722;12.012;2023-04-02T01:45:11;101884.47;;;-3.75;100.00
19600;BME280;9947;57.722;12.012;2023-04-02T01:47:39;101892.41;;;-3.70;100.00
19600;BME280;9947;57.722;12.012;2023-04-02T01:50:20;101899.44;;;-3.75;100.00
19600;BME280;9947;57.722;12.012;2023-04-02T01:52:49;101895.06;;;-3.64;100.00
19600;BME280;9947;57.722;12.012;2023-04-02T01:55:20;101895.94;;;-3.51;100.00
19600;BME280;9947;57.722;12.012;2023-04-02T01:57:52;101894.16;;;-3.55;100.00
19600;BME280;9947;57.722;12.012;2023-04-02T02:00:21;101900.34;;;-3.62;100.00
19600;BME280;9947;57.722;12.012;2023-04-02T02:02:49;101909.16;;;-3.56;100.00
19600;BME280;9947;57.722;12.012;2023-04-02T02:05:20;101904.75;;;-3.57;100.00
19600;BME280;9947;57.722;12.012;2023-04-02T02:07:55;101913.56;;;-3.64;100.00
19600;BME280;9947;57.722;12.012;2023-04-02T02:10:25;101917.06;;;-3.71;100.00
19600;BME280;9947;57.722;12.012;2023-04-02T02:13:00;101917.94;;;-3.72;100.00
19600;BME280;9947;57.722;12.012;2023-04-02T02:15:31;101924.09;;;-3.79;100.00
19600;BME280;9947;57.722;12.012;2023-04-02T02:18:02;101919.72;;;-3.85;100.00
19600;BME280;9947;57.722;12.012;2023-04-02T02:20:31;101927.63;;;-3.86;100.00
19600;BME280;9947;57.722;12.012;2023-04-02T02:23:00;101931.16;;;-3.87;100.00
19600;BME280;9947;57.722;12.012;2023-04-02T02:25:31;101935.56;;;-3.86;100.00
19600;BME280;9947;57.722;12.012;2023-04-02T02:28:02;101932.91;;;-3.85;100.00
19600;BME280;9947;57.722;12.012;2023-04-02T02:30:35;101942.59;;;-3.82;100.00
19600;BME280;9947;57.722;12.012;2023-04-02T02:33:06;101947.88;;;-3.90;100.00
19600;BME280;9947;57.722;12.012;2023-04-02T02:35:39;101949.66;;;-3.87;100.00
19600;BME280;9947;57.722;12.012;2023-04-02T02:38:42;101954.94;;;-3.86;100.00
19600;BME280;9947;57.722;12.012;2023-04-02T02:41:16;101955.81;;;-3.75;100.00
19600;BME280;9947;57.722;12.012;2023-04-02T02:43:49;101950.53;;;-3.70;100.00
19600;BME280;9947;57.722;12.012;2023-04-02T02:46:19;101959.34;;;-3.77;100.00
19600;BME280;9947;57.722;12.012;2023-04-02T02:48:51;101962.84;;;-3.83;100.00
19600;BME280;9947;57.722;12.012;2023-04-02T02:51:23;101963.75;;;-3.84;100.00
19600;BME280;9947;57.722;12.012;2023-04-02T02:53:55;101969.91;;;-3.86;100.00
19600;BME280;9947;57.722;12.012;2023-04-02T02:56:26;101970.78;;;-3.83;100.00
19600;BME280;9947;57.722;12.012;2023-04-02T02:58:55;101975.19;;;-3.86;100.00
19600;BME280;9947;57.722;12.012;2023-04-02T03:01:27;101975.19;;;-3.86;100.00
19600;BME280;9947;57.722;12.012;2023-04-02T03:03:53;101974.31;;;-3.88;100.00
19600;BME280;9947;57.722;12.012;2023-04-02T03:06:24;101989.28;;;-3.90;100.00
19600;BME280;9947;57.722;12.012;2023-04-02T03:08:56;101984.81;;;-3.97;100.00
19600;BME280;9947;57.722;12.012;2023-04-02T03:11:33;101990.09;;;-4.04;100.00
19600;BME280;9947;57.722;12.012;2023-04-02T03:14:09;101986.56;;;-4.06;100.00
19600;BME280;9947;57.722;12.012;2023-04-02T03:16:44;101994.50;;;-4.06;100.00
19600;BME280;9947;57.722;12.012;2023-04-02T03:19:22;101994.47;;;-4.09;100.00
19600;BME280;9947;57.722;12.012;2023-04-02T03:21:55;102005.94;;;-4.10;100.00
19600;BME280;9947;57.722;12.012;2023-04-02T03:24:31;101998.00;;;-4.14;100.00
19600;BME280;9947;57.722;12.012;2023-04-02T03:27:12;102017.34;;;-4.14;100.00
19600;BME280;9947;57.722;12.012;2023-04-02T03:29:44;102020.00;;;-4.15;100.00
19600;BME280;9947;57.722;12.012;2023-04-02T03:32:20;102018.25;;;-4.10;100.00
19600;BME280;9947;57.722;12.012;2023-04-02T03:34:50;102017.44;;;-3.86;100.00
19600;BME280;9947;57.722;12.012;2023-04-02T03:37:23;102020.03;;;-3.98;100.00
19600;BME280;9947;57.722;12.012;2023-04-02T03:39:55;102031.56;;;-3.72;100.00
19600;BME280;9947;57.722;12.012;2023-04-02T03:42:27;102038.53;;;-3.95;100.00
19600;BME280;9947;57.722;12.012;2023-04-02T03:44:58;102044.66;;;-4.07;100.00
19600;BME280;9947;57.722;12.012;2023-04-02T03:47:33;102049.03;;;-4.15;100.00
19600;BME280;9947;57.722;12.012;2023-04-02T03:50:05;102052.50;;;-4.22;100.00
19600;BME280;9947;57.722;12.012;2023-04-02T03:52:34;102056.88;;;-4.29;100.00
19600;BME280;9947;57.722;12.012;2023-04-02T03:55:10;102063.91;;;-4.32;100.00
19600;BME280;9947;57.722;12.012;2023-04-02T03:57:46;102053.31;;;-4.37;100.00
19600;BME280;9947;57.722;12.012;2023-04-02T04:00:22;102057.72;;;-4.41;100.00
19600;BME280;9947;57.722;12.012;2023-04-02T04:02:54;102062.06;;;-4.43;100.00
19600;BME280;9947;57.722;12.012;2023-04-02T04:05:25;102067.31;;;-4.50;100.00
19600;BME280;9947;57.722;12.012;2023-04-02T04:07:58;102066.53;;;-4.39;100.00
19600;BME280;9947;57.722;12.012;2023-04-02T04:10:33;102075.31;;;-4.37;100.00
19600;BME280;9947;57.722;12.012;2023-04-02T04:13:04;102075.25;;;-4.44;100.00
19600;BME280;9947;57.722;12.012;2023-04-02T04:15:35;102084.94;;;-4.43;100.00
19600;BME280;9947;57.722;12.012;2023-04-02T04:18:11;102086.69;;;-4.45;100.00
19600;BME280;9947;57.722;12.012;2023-04-02T04:20:48;102090.16;;;-4.52;100.00
19600;BME280;9947;57.722;12.012;2023-04-02T04:23:24;102099.84;;;-4.53;100.00
19600;BME280;9947;57.722;12.012;2023-04-02T04:26:04;102102.50;;;-4.48;100.00
19600;BME280;9947;57.722;12.012;2023-04-02T04:28:40;102105.13;;;-4.53;100.00
19600;BME280;9947;57.722;12.012;2023-04-02T04:31:16;102113.06;;;-4.51;100.00
19600;BME280;9947;57.722;12.012;2023-04-02T04:33:48;102121.88;;;-4.45;100.00
19600;BME280;9947;57.722;12.012;2023-04-02T04:36:23;102121.88;;;-4.45;100.00
19600;BME280;9947;57.722;12.012;2023-04-02T04:38:54;102121.88;;;-4.45;100.00
19600;BME280;9947;57.722;12.012;2023-04-02T04:41:27;102133.38;;;-4.40;100.00
19600;BME280;9947;57.722;12.012;2023-04-02T04:43:58;102132.44;;;-4.43;100.00
19600;BME280;9947;57.722;12.012;2023-04-02T04:46:30;102132.44;;;-4.46;100.00
19600;BME280;9947;57.722;12.012;2023-04-02T04:49:01;102136.84;;;-4.45;100.00
19600;BME280;9947;57.722;12.012;2023-04-02T04:51:35;102139.47;;;-4.45;100.00
19600;BME280;9947;57.722;12.012;2023-04-02T04:54:02;102138.72;;;-4.30;100.00
19600;BME280;9947;57.722;12.012;2023-04-02T04:56:33;102147.66;;;-4.09;100.00
19600;BME280;9947;57.722;12.012;2023-04-02T04:59:02;102149.53;;;-3.89;100.00
19600;BME280;9947;57.722;12.012;2023-04-02T05:01:36;102150.50;;;-3.66;100.00
19600;BME280;9947;57.722;12.012;2023-04-02T05:04:16;102146.22;;;-3.33;100.00
19600;BME280;9947;57.722;12.012;2023-04-02T05:06:51;102149.78;;;-3.22;100.00
19600;BME280;9947;57.722;12.012;2023-04-02T05:09:26;102159.56;;;-2.75;100.00
19600;BME280;9947;57.722;12.012;2023-04-02T05:12:03;102163.09;;;-2.34;100.00
19600;BME280;9947;57.722;12.012;2023-04-02T05:14:34;102168.25;;;-1.71;100.00
19600;BME280;9947;57.722;12.012;2023-04-02T05:17:04;102168.34;;;-2.00;100.00
19600;BME280;9947;57.722;12.012;2023-04-02T05:19:40;102178.94;;;-2.19;100.00
19600;BME280;9947;57.722;12.012;2023-04-02T05:22:14;102183.31;;;-1.90;100.00
19600;BME280;9947;57.722;12.012;2023-04-02T05:24:50;102185.13;;;-2.15;100.00
19600;BME280;9947;57.722;12.012;2023-04-02T05:27:25;102195.63;;;-1.68;100.00
19600;BME280;9947;57.722;12.012;2023-04-02T05:29:59;102195.69;;;-1.81;100.00
19600;BME280;9947;57.722;12.012;2023-04-02T05:32:32;102193.00;;;-1.72;100.00
19600;BME280;9947;57.722;12.012;2023-04-02T05:35:03;102204.50;;;-1.78;100.00
19600;BME280;9947;57.722;12.012;2023-04-02T05:37:32;102204.53;;;-2.13;100.00
19600;BME280;9947;57.722;12.012;2023-04-02T05:40:08;102212.50;;;-2.11;100.00
19600;BME280;9947;57.722;12.012;2023-04-02T05:42:38;102208.94;;;-1.80;100.00
19600;BME280;9947;57.722;12.012;2023-04-02T05:45:21;102223.09;;;-2.05;100.00
19600;BME280;9947;57.722;12.012;2023-04-02T05:47:52;102230.16;;;-2.39;100.00
19600;BME280;9947;57.722;12.012;2023-04-02T05:50:27;102223.97;;;-2.15;100.00
19600;BME280;9947;57.722;12.012;2023-04-02T05:52:58;102235.47;;;-2.20;100.00
19600;BME280;9947;57.722;12.012;2023-04-02T05:55:39;102237.22;;;-2.20;100.00
19600;BME280;9947;57.722;12.012;2023-04-02T05:58:15;102245.16;;;-2.12;100.00
19600;BME280;9947;57.722;12.012;2023-04-02T06:01:12;102250.47;;;-2.20;100.00
19600;BME280;9947;57.722;12.012;2023-04-02T06:03:52;102250.50;;;-2.05;100.00
19600;BME280;9947;57.722;12.012;2023-04-02T06:06:39;102251.34;;;-1.98;100.00
19600;BME280;9947;57.722;12.012;2023-04-02T06:09:11;102250.41;;;-1.61;100.00
19600;BME280;9947;57.722;12.012;2023-04-02T06:11:43;102260.13;;;-1.50;100.00
19600;BME280;9947;57.722;12.012;2023-04-02T06:14:13;102256.50;;;-1.27;100.00
19600;BME280;9947;57.722;12.012;2023-04-02T06:16:42;102256.34;;;-0.95;100.00
19600;BME280;9947;57.722;12.012;2023-04-02T06:19:16;102265.16;;;-0.86;100.00
19600;BME280;9947;57.722;12.012;2023-04-02T06:21:46;102270.34;;;-0.65;100.00
19600;BME280;9947;57.722;12.012;2023-04-02T06:24:18;102273.81;;;-0.55;100.00
19600;BME280;9947;57.722;12.012;2023-04-02T06:26:49;102272.00;;;-0.44;100.00
19600;BME280;9947;57.722;12.012;2023-04-02T06:29:27;102279.03;;;-0.40;100.00
19600;BME280;9947;57.722;12.012;2023-04-02T06:32:00;102278.78;;;-0.07;100.00
19600;BME280;9947;57.722;12.012;2023-04-02T06:34:29;102279.84;;;-0.26;100.00
19600;BME280;9947;57.722;12.012;2023-04-02T06:37:00;102291.38;;;-0.32;100.00
19600;BME280;9947;57.722;12.012;2023-04-02T06:39:28;102284.41;;;-0.52;100.00
19600;BME280;9947;57.722;12.012;2023-04-02T06:41:59;102283.59;;;-0.60;100.00
19600;BME280;9947;57.722;12.012;2023-04-02T06:44:35;102299.53;;;-0.60;100.00
19600;BME280;9947;57.722;12.012;2023-04-02T06:47:06;102298.56;;;-0.46;100.00
19600;BME280;9947;57.722;12.012;2023-04-02T06:49:42;102297.72;;;-0.54;100.00
19600;BME280;9947;57.722;12.012;2023-04-02T06:52:18;102305.56;;;-0.34;100.00
19600;BME280;9947;57.722;12.012;2023-04-02T06:54:48;102309.09;;;-0.34;100.00
19600;BME280;9947;57.722;12.012;2023-04-02T06:57:15;102310.78;;;-0.19;100.00
19600;BME280;9947;57.722;12.012;2023-04-02T06:59:42;102320.41;;;-0.06;100.00
19600;BME280;9947;57.722;12.012;2023-04-02T07:02:26;102315.78;;;0.18;100.00
19600;BME280;9947;57.722;12.012;2023-04-02T07:05:00;102320.25;;;0.14;100.00
19600;BME280;9947;57.722;12.012;2023-04-02T07:07:29;102315.91;;;0.07;100.00
19600;BME280;9947;57.722;12.012;2023-04-02T07:09:56;102327.09;;;0.43;100.00
19600;BME280;9947;57.722;12.012;2023-04-02T07:12:24;102324.41;;;0.44;100.00
19600;BME280;9947;57.722;12.012;2023-04-02T07:14:51;102342.88;;;0.63;100.00
19600;BME280;9947;57.722;12.012;2023-04-02T07:17:24;102335.59;;;0.77;100.00
19600;BME280;9947;57.722;12.012;2023-04-02T07:19:51;102333.03;;;0.69;100.00
19600;BME280;9947;57.722;12.012;2023-04-02T07:22:18;102332.72;;;0.97;100.00
19600;BME280;9947;57.722;12.012;2023-04-02T07:24:47;102335.31;;;1.06;100.00
19600;BME280;9947;57.722;12.012;2023-04-02T07:27:14;102335.00;;;1.30;100.00
19600;BME280;9947;57.722;12.012;2023-04-02T07:29:41;102343.09;;;1.21;97.56
19600;BME280;9947;57.722;12.012;2023-04-02T07:32:08;102337.53;;;1.41;91.82
19600;BME280;9947;57.722;12.012;2023-04-02T07:34:35;102337.53;;;1.39;89.58
19600;BME280;9947;57.722;12.012;2023-04-02T07:37:03;102351.88;;;1.29;83.32
19600;BME280;9947;57.722;12.012;2023-04-02T07:39:30;102353.41;;;1.47;85.67
19600;BME280;9947;57.722;12.012;2023-04-02T07:42:00;102352.50;;;1.49;81.36
19600;BME280;9947;57.722;12.012;2023-04-02T07:44:27;102365.75;;;1.57;80.12
19600;BME280;9947;57.722;12.012;2023-04-02T07:47:01;102359.16;;;1.82;79.14
19600;BME280;9947;57.722;12.012;2023-04-02T07:49:28;102358.22;;;1.87;73.45
19600;BME280;9947;57.722;12.012;2023-04-02T07:51:55;102363.31;;;2.00;72.44
19600;BME280;9947;57.722;12.012;2023-04-02T07:54:22;102371.50;;;1.88;68.09
19600;BME280;9947;57.722;12.012;2023-04-02T07:56:49;102373.22;;;1.92;65.43
19600;BME280;9947;57.722;12.012;2023-04-02T07:59:17;102373.09;;;2.00;64.80
19600;BME280;9947;57.722;12.012;2023-04-02T08:01:44;102376.50;;;2.11;64.46
19600;BME280;9947;57.722;12.012;2023-04-02T08:04:16;102382.63;;;2.17;62.91
19600;BME280;9947;57.722;12.012;2023-04-02T08:06:44;102387.69;;;2.34;61.50
19600;BME280;9947;57.722;12.012;2023-04-02T08:09:11;102378.84;;;2.29;59.86
19600;BME280;9947;57.722;12.012;2023-04-02T08:11:38;102386.69;;;2.41;58.84
19600;BME280;9947;57.722;12.012;2023-04-02T08:14:06;102394.72;;;2.40;58.10
19600;BME280;9947;57.722;12.012;2023-04-02T08:16:46;102399.84;;;2.52;57.90
19600;BME280;9947;57.722;12.012;2023-04-02T08:19:13;102393.09;;;2.81;57.40
19600;BME280;9947;57.722;12.012;2023-04-02T08:21:41;102394.19;;;2.70;55.57
19600;BME280;9947;57.722;12.012;2023-04-02T08:24:14;102397.56;;;2.80;55.37
19600;BME280;9947;57.722;12.012;2023-04-02T08:26:44;102404.63;;;2.83;52.71
19600;BME280;9947;57.722;12.012;2023-04-02T08:29:11;102399.16;;;2.92;52.55
19600;BME280;9947;57.722;12.012;2023-04-02T08:31:46;102408.97;;;2.90;52.35
19600;BME280;9947;57.722;12.012;2023-04-02T08:34:20;102412.69;;;2.81;52.60
19600;BME280;9947;57.722;12.012;2023-04-02T08:36:46;102410.81;;;2.88;51.35
19600;BME280;9947;57.722;12.012;2023-04-02T08:39:13;102415.72;;;3.09;51.62
19600;BME280;9947;57.722;12.012;2023-04-02T08:41:44;102424.31;;;3.26;51.10
19600;BME280;9947;57.722;12.012;2023-04-02T08:44:33;102418.75;;;3.35;49.50
19600;BME280;9947;57.722;12.012;2023-04-02T08:47:04;102418.25;;;3.60;48.79
19600;BME280;9947;57.722;12.012;2023-04-02T08:49:36;102428.00;;;3.62;47.82
19600;BME280;9947;57.722;12.012;2023-04-02T08:52:07;102430.47;;;3.73;47.41
19600;BME280;9947;57.722;12.012;2023-04-02T08:54:46;102421.28;;;3.85;45.91
19600;BME280;9947;57.722;12.012;2023-04-02T08:57:18;102435.25;;;3.99;47.59
19600;BME280;9947;57.722;12.012;2023-04-02T08:59:54;102430.72;;;4.02;46.10
19600;BME280;9947;57.722;12.012;2023-04-02T09:02:30;102435.66;;;4.21;44.25
19600;BME280;9947;57.722;12.012;2023-04-02T09:05:03;102434.13;;;4.09;42.53
19600;BME280;9947;57.722;12.012;2023-04-02T09:07:31;102440.38;;;4.10;43.41
19600;BME280;9947;57.722;12.012;2023-04-02T09:09:58;102437.66;;;4.11;44.11
19600;BME280;9947;57.722;12.012;2023-04-02T09:12:28;102443.03;;;4.48;42.57
19600;BME280;9947;57.722;12.012;2023-04-02T09:15:09;102446.84;;;4.38;42.56
19600;BME280;9947;57.722;12.012;2023-04-02T09:17:44;102440.91;;;4.25;42.52
19600;BME280;9947;57.722;12.012;2023-04-02T09:20:20;102444.72;;;4.52;42.52
19600;BME280;9947;57.722;12.012;2023-04-02T09:22:49;102450.63;;;4.65;41.83
19600;BME280;9947;57.722;12.012;2023-04-02T09:25:20;102456.81;;;4.69;41.07
19600;BME280;9947;57.722;12.012;2023-04-02T09:27:48;102458.88;;;4.57;40.98
19600;BME280;9947;57.722;12.012;2023-04-02T09:30:26;102460.41;;;4.68;40.82
19600;BME280;9947;57.722;12.012;2023-04-02T09:32:57;102462.09;;;4.72;41.15
19600;BME280;9947;57.722;12.012;2023-04-02T09:35:29;102464.16;;;4.60;41.32
19600;BME280;9947;57.722;12.012;2023-04-02T09:38:23;102469.34;;;4.67;41.27
19600;BME280;9947;57.722;12.012;2023-04-02T09:40:58;102470.28;;;4.65;40.63
19600;BME280;9947;57.722;12.012;2023-04-02T09:43:28;102475.59;;;4.67;39.46
19600;BME280;9947;57.722;12.012;2023-04-02T09:45:59;102471.88;;;4.74;40.08
19600;BME280;9947;57.722;12.012;2023-04-02T09:48:30;102481.38;;;4.86;39.88
19600;BME280;9947;57.722;12.012;2023-04-02T09:51:13;102484.47;;;4.71;40.11
19600;BME280;9947;57.722;12.012;2023-04-02T09:53:41;102475.59;;;4.69;40.18
19600;BME280;9947;57.722;12.012;2023-04-02T09:56:17;102482.47;;;4.79;40.53
19600;BME280;9947;57.722;12.012;2023-04-02T09:59:01;102490.22;;;4.89;39.98
19600;BME280;9947;57.722;12.012;2023-04-02T10:01:30;102485.41;;;5.04;40.40
19600;BME280;9947;57.722;12.012;2023-04-02T10:04:33;102506.94;;;5.01;40.59
19600;BME280;9947;57.722;12.012;2023-04-02T10:07:05;102510.91;;;5.18;40.34
19600;BME280;9947;57.722;12.012;2023-04-02T10:09:38;102494.41;;;5.01;40.56
19600;BME280;9947;57.722;12.012;2023-04-02T10:12:13;102492.41;;;5.09;42.00
19600;BME280;9947;57.722;12.012;2023-04-02T10:14:43;102499.59;;;5.07;41.14
19600;BME280;9947;57.722;12.012;2023-04-02T10:17:17;102502.44;;;5.35;41.67
19600;BME280;9947;57.722;12.012;2023-04-02T10:19:51;102511.31;;;5.37;40.88
19600;BME280;9947;57.722;12.012;2023-04-02T10:22:21;102515.41;;;5.52;41.18
19600;BME280;9947;57.722;12.012;2023-04-02T10:24:49;102522.59;;;5.16;41.90
19600;BME280;9947;57.722;12.012;2023-04-02T10:27:22;102516.09;;;5.26;40.98
19600;BME280;9947;57.722;12.012;2023-04-02T10:30:07;102522.22;;;5.31;40.83
19600;BME280;9947;57.722;12.012;2023-04-02T10:32:39;102527.13;;;5.14;40.30
19600;BME280;9947;57.722;12.012;2023-04-02T10:35:16;102523.97;;;5.32;41.49
19600;BME280;9947;57.722;12.012;2023-04-02T10:37:59;102534.03;;;5.24;41.42
19600;BME280;9947;57.722;12.012;2023-04-02T10:40:31;102548.28;;;5.26;40.66
19600;BME280;9947;57.722;12.012;2023-04-02T10:43:38;102541.88;;;5.32;41.38
19600;BME280;9947;57.722;12.012;2023-04-02T10:46:13;102537.81;;;5.49;41.92
19600;BME280;9947;57.722;12.012;2023-04-02T10:48:47;102540.69;;;5.42;41.51
19600;BME280;9947;57.722;12.012;2023-04-02T10:51:27;102539.13;;;5.33;40.25
19600;BME280;9947;57.722;12.012;2023-04-02T10:53:58;102543.19;;;5.49;41.43
19600;BME280;9947;57.722;12.012;2023-04-02T10:56:35;102550.44;;;5.44;40.81
19600;BME280;9947;57.722;12.012;2023-04-02T10:59:10;102556.75;;;5.43;40.29
19600;BME280;9947;57.722;12.012;2023-04-02T11:01:42;102559.25;;;5.51;41.62
19600;BME280;9947;57.722;12.012;2023-04-02T11:04:16;102562.53;;;5.61;40.78
19600;BME280;9947;57.722;12.012;2023-04-02T11:06:49;102546.22;;;5.68;41.22
19600;BME280;9947;57.722;12.012;2023-04-02T11:09:21;102553.44;;;5.66;40.09
19600;BME280;9947;57.722;12.012;2023-04-02T11:11:52;102552.88;;;5.55;40.94
19600;BME280;9947;57.722;12.012;2023-04-02T11:14:23;102553.56;;;5.62;40.30
19600;BME280;9947;57.722;12.012;2023-04-02T11:16:52;102558.91;;;5.29;40.41
19600;BME280;9947;57.722;12.012;2023-04-02T11:19:27;102559.38;;;5.45;40.17
19600;BME280;9947;57.722;12.012;2023-04-02T11:21:58;102564.66;;;5.49;41.16
19600;BME280;9947;57.722;12.012;2023-04-02T11:24:34;102562.81;;;5.51;40.61
19600;BME280;9947;57.722;12.012;2023-04-02T11:27:10;102570.38;;;5.68;41.41
19600;BME280;9947;57.722;12.012;2023-04-02T11:29:40;102565.41;;;5.54;40.59
19600;BME280;9947;57.722;12.012;2023-04-02T11:32:32;102564.34;;;5.60;41.13
19600;BME280;9947;57.722;12.012;2023-04-02T11:35:03;102578.94;;;5.50;40.28
19600;BME280;9947;57.722;12.012;2023-04-02T11:37:55;102578.09;;;5.48;40.11
19600;BME280;9947;57.722;12.012;2023-04-02T11:40:43;102575.69;;;5.70;40.76
19600;BME280;9947;57.722;12.012;2023-04-02T11:43:50;102588.50;;;5.60;40.87
19600;BME280;9947;57.722;12.012;2023-04-02T11:46:40;102584.13;;;5.56;40.99
19600;BME280;9947;57.722;12.012;2023-04-02T11:49:38;102591.13;;;5.62;41.85
19600;BME280;9947;57.722;12.012;2023-04-02T11:52:26;102588.75;;;5.83;41.47
19600;BME280;9947;57.722;12.012;2023-04-02T11:55:16;102585.47;;;5.72;39.75
19600;BME280;9947;57.722;12.012;2023-04-02T11:57:56;102592.16;;;5.57;40.48
19600;BME280;9947;57.722;12.012;2023-04-02T12:00:35;102592.75;;;5.67;41.13
19600;BME280;9947;57.722;12.012;2023-04-02T12:03:35;102591.56;;;5.79;40.76
19600;BME280;9947;57.722;12.012;2023-04-02T12:06:11;102586.16;;;5.80;40.44
19600;BME280;9947;57.722;12.012;2023-04-02T12:08:48;102590.75;;;5.77;40.53
19600;BME280;9947;57.722;12.012;2023-04-02T12:11:33;102590.03;;;6.03;40.62
19600;BME280;9947;57.722;12.012;2023-04-02T12:14:06;102594.81;;;5.92;39.61
19600;BME280;9947;57.722;12.012;2023-04-02T12:16:54;102602.97;;;5.87;40.48
19600;BME280;9947;57.722;12.012;2023-04-02T12:19:22;102602.47;;;5.73;40.39
19600;BME280;9947;57.722;12.012;2023-04-02T12:21:50;102599.59;;;5.80;40.14
19600;BME280;9947;57.722;12.012;2023-04-02T12:24:20;102602.91;;;5.90;40.64
19600;BME280;9947;57.722;12.012;2023-04-02T12:26:48;102603.94;;;5.84;39.66
19600;BME280;9947;57.722;12.012;2023-04-02T12:29:33;102608.56;;;5.79;39.28
19600;BME280;9947;57.722;12.012;2023-04-02T12:32:02;102616.47;;;5.84;39.18
19600;BME280;9947;57.722;12.012;2023-04-02T12:34:29;102609.44;;;5.80;39.69
19600;BME280;9947;57.722;12.012;2023-04-02T12:37:04;102609.72;;;6.03;39.94
19600;BME280;9947;57.722;12.012;2023-04-02T12:39:32;102605.06;;;6.10;40.13
19600;BME280;9947;57.722;12.012;2023-04-02T12:41:59;102608.94;;;6.31;40.36
19600;BME280;9947;57.722;12.012;2023-04-02T12:44:28;102611.47;;;6.35;39.33
19600;BME280;9947;57.722;12.012;2023-04-02T12:46:55;102606.59;;;6.18;39.45
19600;BME280;9947;57.722;12.012;2023-04-02T12:49:36;102618.47;;;6.10;38.68
19600;BME280;9947;57.722;12.012;2023-04-02T12:52:05;102607.59;;;6.14;38.48
19600;BME280;9947;57.722;12.012;2023-04-02T12:54:37;102612.75;;;6.22;39.97
19600;BME280;9947;57.722;12.012;2023-04-02T12:57:29;102612.19;;;6.11;39.84
19600;BME280;9947;57.722;12.012;2023-04-02T12:59:57;102623.94;;;6.07;39.70
19600;BME280;9947;57.722;12.012;2023-04-02T13:02:27;102611.22;;;6.13;39.06
19600;BME280;9947;57.722;12.012;2023-04-02T13:04:57;102613.09;;;6.10;39.95
19600;BME280;9947;57.722;12.012;2023-04-02T13:07:30;102613.44;;;5.98;39.48
19600;BME280;9947;57.722;12.012;2023-04-02T13:09:59;102622.38;;;5.98;40.14
19600;BME280;9947;57.722;12.012;2023-04-02T13:12:31;102610.41;;;6.10;40.92
19600;BME280;9947;57.722;12.012;2023-04-02T13:15:01;102614.53;;;6.22;39.61
19600;BME280;9947;57.722;12.012;2023-04-02T13:17:41;102621.06;;;6.13;40.06
19600;BME280;9947;57.722;12.012;2023-04-02T13:20:37;102615.63;;;6.16;38.03
19600;BME280;9947;57.722;12.012;2023-04-02T13:23:23;102612.09;;;6.14;38.06
19600;BME280;9947;57.722;12.012;2023-04-02T13:25:50;102615.00;;;6.06;38.53